sensor_id;sensor_type;location;lat;lon;timestamp;P1;durP1;ratioP1;P2;durP2;ratioP2
59734;SDS011;64362;45.620;4.920;2024-03-25T00:01:54;1.55;;;0.75;;
59734;SDS011;64362;45.620;4.920;2024-03-25T00:04:19;1.95;;;0.63;;
59734;SDS011;64362;45.620;4.920;2024-03-25T00:06:53;1.58;;;0.68;;
59734;SDS011;64362;45.620;4.920;2024-03-25T00:09:18;1.98;;;0.65;;
59734;SDS011;64362;45.620;4.920;2024-03-25T00:11:52;1.70;;;0.57;;
59734;SDS011;64362;45.620;4.920;2024-03-25T00:14:20;1.95;;;0.75;;
59734;SDS011;64362;45.620;4.920;2024-03-25T00:16:50;1.42;;;0.52;;
59734;SDS011;64362;45.620;4.920;2024-03-25T00:19:16;2.65;;;0.80;;
59734;SDS011;64362;45.620;4.920;2024-03-25T00:21:41;2.08;;;0.50;;
59734;SDS011;64362;45.620;4.920;2024-03-25T00:24:07;1.73;;;0.47;;
59734;SDS011;64362;45.620;4.920;2024-03-25T00:26:33;1.67;;;0.60;;
59734;SDS011;64362;45.620;4.920;2024-03-25T00:28:58;1.73;;;0.68;;
59734;SDS011;64362;45.620;4.920;2024-03-25T00:31:24;1.73;;;0.60;;
59734;SDS011;64362;45.620;4.920;2024-03-25T00:33:49;1.60;;;0.80;;
59734;SDS011;64362;45.620;4.920;2024-03-25T00:36:15;2.28;;;0.80;;
59734;SDS011;64362;45.620;4.920;2024-03-25T00:38:40;2.65;;;0.80;;
59734;SDS011;64362;45.620;4.920;2024-03-25T00:41:06;1.67;;;0.63;;
59734;SDS011;64362;45.620;4.920;2024-03-25T00:43:31;1.63;;;0.52;;
59734;SDS011;64362;45.620;4.920;2024-03-25T00:45:57;1.50;;;0.57;;
59734;SDS011;64362;45.620;4.920;2024-03-25T00:48:23;2.30;;;0.65;;
59734;SDS011;64362;45.620;4.920;2024-03-25T00:50:49;1.67;;;0.65;;
59734;SDS011;64362;45.620;4.920;2024-03-25T00:53:14;2.17;;;0.70;;
59734;SDS011;64362;45.620;4.920;2024-03-25T00:55:40;1.25;;;0.60;;
59734;SDS011;64362;45.620;4.920;2024-03-25T00:58:05;1.70;;;0.80;;
59734;SDS011;64362;45.620;4.920;2024-03-25T01:00:31;2.70;;;0.80;;
59734;SDS011;64362;45.620;4.920;2024-03-25T01:02:56;5.38;;;1.02;;
59734;SDS011;64362;45.620;4.920;2024-03-25T01:05:22;1.65;;;0.70;;
59734;SDS011;64362;45.620;4.920;2024-03-25T01:07:47;1.45;;;0.70;;
59734;SDS011;64362;45.620;4.920;2024-03-25T01:10:15;1.73;;;0.70;;
59734;SDS011;64362;45.620;4.920;2024-03-25T01:12:41;1.20;;;0.50;;
59734;SDS011;64362;45.620;4.920;2024-03-25T01:15:07;3.13;;;0.57;;
59734;SDS011;64362;45.620;4.920;2024-03-25T01:17:35;2.45;;;0.50;;
59734;SDS011;64362;45.620;4.920;2024-03-25T01:20:01;0.75;;;0.40;;
59734;SDS011;64362;45.620;4.920;2024-03-25T01:22:26;2.30;;;0.63;;
59734;SDS011;64362;45.620;4.920;2024-03-25T01:24:52;2.17;;;0.80;;
59734;SDS011;64362;45.620;4.920;2024-03-25T01:27:17;1.45;;;0.50;;
59734;SDS011;64362;45.620;4.920;2024-03-25T01:29:43;1.23;;;0.60;;
59734;SDS011;64362;45.620;4.920;2024-03-25T01:32:08;1.33;;;0.70;;
59734;SDS011;64362;45.620;4.920;2024-03-25T01:34:34;1.63;;;0.70;;
59734;SDS011;64362;45.620;4.920;2024-03-25T01:36:59;1.45;;;0.55;;
59734;SDS011;64362;45.620;4.920;2024-03-25T01:39:25;1.17;;;0.60;;
59734;SDS011;64362;45.620;4.920;2024-03-25T01:41:50;1.42;;;0.70;;
59734;SDS011;64362;45.620;4.920;2024-03-25T01:44:16;1.45;;;0.55;;
59734;SDS011;64362;45.620;4.920;2024-03-25T01:46:41;1.80;;;0.85;;
59734;SDS011;64362;45.620;4.920;2024-03-25T01:49:08;1.20;;;0.52;;
59734;SDS011;64362;45.620;4.920;2024-03-25T01:51:33;2.00;;;0.77;;
59734;SDS011;64362;45.620;4.920;2024-03-25T01:54:02;1.80;;;0.50;;
59734;SDS011;64362;45.620;4.920;2024-03-25T01:56:29;1.90;;;0.80;;
59734;SDS011;64362;45.620;4.920;2024-03-25T01:58:57;1.40;;;0.70;;
59734;SDS011;64362;45.620;4.920;2024-03-25T02:01:23;2.40;;;0.90;;
59734;SDS011;64362;45.620;4.920;2024-03-25T02:03:55;1.42;;;0.80;;
59734;SDS011;64362;45.620;4.920;2024-03-25T02:06:21;1.10;;;0.60;;
59734;SDS011;64362;45.620;4.920;2024-03-25T02:08:49;1.70;;;0.60;;
59734;SDS011;64362;45.620;4.920;2024-03-25T02:11:15;1.00;;;0.50;;
59734;SDS011;64362;45.620;4.920;2024-03-25T02:13:41;2.25;;;0.60;;
59734;SDS011;64362;45.620;4.920;2024-03-25T02:16:07;1.95;;;0.77;;
59734;SDS011;64362;45.620;4.920;2024-03-25T02:18:32;1.40;;;0.60;;
59734;SDS011;64362;45.620;4.920;2024-03-25T02:20:58;2.00;;;0.65;;
59734;SDS011;64362;45.620;4.920;2024-03-25T02:23:24;2.30;;;0.88;;
59734;SDS011;64362;45.620;4.920;2024-03-25T02:25:50;1.65;;;0.68;;
59734;SDS011;64362;45.620;4.920;2024-03-25T02:28:16;2.38;;;0.70;;
59734;SDS011;64362;45.620;4.920;2024-03-25T02:30:42;1.98;;;0.90;;
59734;SDS011;64362;45.620;4.920;2024-03-25T02:33:07;2.08;;;0.73;;
59734;SDS011;64362;45.620;4.920;2024-03-25T02:35:33;1.70;;;0.50;;
59734;SDS011;64362;45.620;4.920;2024-03-25T02:37:59;1.45;;;0.70;;
59734;SDS011;64362;45.620;4.920;2024-03-25T02:40:25;1.80;;;0.60;;
59734;SDS011;64362;45.620;4.920;2024-03-25T02:42:51;1.65;;;0.60;;
59734;SDS011;64362;45.620;4.920;2024-03-25T02:45:17;1.08;;;0.50;;
59734;SDS011;64362;45.620;4.920;2024-03-25T02:47:43;1.35;;;0.75;;
59734;SDS011;64362;45.620;4.920;2024-03-25T02:50:08;1.55;;;0.60;;
59734;SDS011;64362;45.620;4.920;2024-03-25T02:52:34;2.00;;;0.80;;
59734;SDS011;64362;45.620;4.920;2024-03-25T02:54:59;1.20;;;0.50;;
59734;SDS011;64362;45.620;4.920;2024-03-25T02:57:25;1.65;;;0.70;;
59734;SDS011;64362;45.620;4.920;2024-03-25T02:59:50;0.98;;;0.50;;
59734;SDS011;64362;45.620;4.920;2024-03-25T03:02:16;1.83;;;0.80;;
59734;SDS011;64362;45.620;4.920;2024-03-25T03:04:41;1.48;;;0.68;;
59734;SDS011;64362;45.620;4.920;2024-03-25T03:07:07;1.80;;;0.75;;
59734;SDS011;64362;45.620;4.920;2024-03-25T03:09:32;1.35;;;0.55;;
59734;SDS011;64362;45.620;4.920;2024-03-25T03:11:58;1.55;;;0.70;;
59734;SDS011;64362;45.620;4.920;2024-03-25T03:14:23;1.88;;;0.65;;
59734;SDS011;64362;45.620;4.920;2024-03-25T03:16:49;1.20;;;0.52;;
59734;SDS011;64362;45.620;4.920;2024-03-25T03:19:14;1.55;;;0.75;;
59734;SDS011;64362;45.620;4.920;2024-03-25T03:21:40;2.03;;;0.77;;
59734;SDS011;64362;45.620;4.920;2024-03-25T03:24:05;1.60;;;0.80;;
59734;SDS011;64362;45.620;4.920;2024-03-25T03:26:31;2.40;;;0.73;;
59734;SDS011;64362;45.620;4.920;2024-03-25T03:28:56;2.03;;;0.70;;
59734;SDS011;64362;45.620;4.920;2024-03-25T03:31:22;2.05;;;0.70;;
59734;SDS011;64362;45.620;4.920;2024-03-25T03:33:48;1.27;;;0.65;;
59734;SDS011;64362;45.620;4.920;2024-03-25T03:36:18;2.00;;;0.82;;
59734;SDS011;64362;45.620;4.920;2024-03-25T03:38:45;2.08;;;0.70;;
59734;SDS011;64362;45.620;4.920;2024-03-25T03:41:11;1.23;;;0.55;;
59734;SDS011;64362;45.620;4.920;2024-03-25T03:43:37;1.63;;;0.60;;
59734;SDS011;64362;45.620;4.920;2024-03-25T03:46:02;1.67;;;0.60;;
59734;SDS011;64362;45.620;4.920;2024-03-25T03:48:29;2.00;;;0.50;;
59734;SDS011;64362;45.620;4.920;2024-03-25T03:50:55;2.03;;;0.50;;
59734;SDS011;64362;45.620;4.920;2024-03-25T03:53:20;1.48;;;0.50;;
59734;SDS011;64362;45.620;4.920;2024-03-25T03:58:24;5.38;;;0.80;;
59734;SDS011;64362;45.620;4.920;2024-03-25T04:00:50;1.58;;;0.80;;
59734;SDS011;64362;45.620;4.920;2024-03-25T04:03:16;0.80;;;0.63;;
59734;SDS011;64362;45.620;4.920;2024-03-25T04:05:42;1.42;;;0.60;;
59734;SDS011;64362;45.620;4.920;2024-03-25T04:08:08;1.10;;;0.57;;
59734;SDS011;64362;45.620;4.920;2024-03-25T04:10:33;1.27;;;0.70;;
59734;SDS011;64362;45.620;4.920;2024-03-25T04:12:59;1.08;;;0.60;;
59734;SDS011;64362;45.620;4.920;2024-03-25T04:15:25;1.30;;;0.60;;
59734;SDS011;64362;45.620;4.920;2024-03-25T04:17:51;1.50;;;0.75;;
59734;SDS011;64362;45.620;4.920;2024-03-25T04:20:17;1.20;;;0.50;;
59734;SDS011;64362;45.620;4.920;2024-03-25T04:22:43;1.08;;;0.60;;
59734;SDS011;64362;45.620;4.920;2024-03-25T04:25:09;2.50;;;0.73;;
59734;SDS011;64362;45.620;4.920;2024-03-25T04:27:42;1.85;;;0.70;;
59734;SDS011;64362;45.620;4.920;2024-03-25T04:30:08;1.75;;;0.70;;
59734;SDS011;64362;45.620;4.920;2024-03-25T04:32:34;1.50;;;0.70;;
59734;SDS011;64362;45.620;4.920;2024-03-25T04:35:01;1.85;;;0.68;;
59734;SDS011;64362;45.620;4.920;2024-03-25T04:37:27;1.70;;;0.50;;
59734;SDS011;64362;45.620;4.920;2024-03-25T04:39:56;1.10;;;0.57;;
59734;SDS011;64362;45.620;4.920;2024-03-25T04:42:21;1.25;;;0.63;;
59734;SDS011;64362;45.620;4.920;2024-03-25T04:44:47;1.65;;;0.70;;
59734;SDS011;64362;45.620;4.920;2024-03-25T04:47:13;2.15;;;0.80;;
59734;SDS011;64362;45.620;4.920;2024-03-25T04:49:40;1.05;;;0.50;;
59734;SDS011;64362;45.620;4.920;2024-03-25T04:52:06;1.92;;;0.60;;
59734;SDS011;64362;45.620;4.920;2024-03-25T04:54:32;1.45;;;0.50;;
59734;SDS011;64362;45.620;4.920;2024-03-25T04:56:57;0.93;;;0.50;;
59734;SDS011;64362;45.620;4.920;2024-03-25T04:59:23;0.85;;;0.50;;
59734;SDS011;64362;45.620;4.920;2024-03-25T05:01:48;0.93;;;0.60;;
59734;SDS011;64362;45.620;4.920;2024-03-25T05:04:14;1.42;;;0.50;;
59734;SDS011;64362;45.620;4.920;2024-03-25T05:06:39;1.55;;;0.50;;
59734;SDS011;64362;45.620;4.920;2024-03-25T05:09:05;1.92;;;0.60;;
59734;SDS011;64362;45.620;4.920;2024-03-25T05:11:33;1.17;;;0.38;;
59734;SDS011;64362;45.620;4.920;2024-03-25T05:13:58;1.30;;;0.60;;
59734;SDS011;64362;45.620;4.920;2024-03-25T05:16:24;2.03;;;0.60;;
59734;SDS011;64362;45.620;4.920;2024-03-25T05:18:50;1.08;;;0.47;;
59734;SDS011;64362;45.620;4.920;2024-03-25T05:21:18;1.38;;;0.40;;
59734;SDS011;64362;45.620;4.920;2024-03-25T05:23:43;1.85;;;0.60;;
59734;SDS011;64362;45.620;4.920;2024-03-25T05:26:10;3.25;;;0.70;;
59734;SDS011;64362;45.620;4.920;2024-03-25T05:28:35;1.17;;;0.52;;
59734;SDS011;64362;45.620;4.920;2024-03-25T05:31:10;2.28;;;0.70;;
59734;SDS011;64362;45.620;4.920;2024-03-25T05:33:36;1.02;;;0.40;;
59734;SDS011;64362;45.620;4.920;2024-03-25T05:36:03;1.13;;;0.40;;
59734;SDS011;64362;45.620;4.920;2024-03-25T05:38:29;1.27;;;0.60;;
59734;SDS011;64362;45.620;4.920;2024-03-25T05:40:54;2.58;;;0.70;;
59734;SDS011;64362;45.620;4.920;2024-03-25T05:43:23;1.10;;;0.50;;
59734;SDS011;64362;45.620;4.920;2024-03-25T05:45:52;1.40;;;0.68;;
59734;SDS011;64362;45.620;4.920;2024-03-25T05:48:19;0.82;;;0.50;;
59734;SDS011;64362;45.620;4.920;2024-03-25T05:50:45;1.02;;;0.50;;
59734;SDS011;64362;45.620;4.920;2024-03-25T05:53:10;1.30;;;0.50;;
59734;SDS011;64362;45.620;4.920;2024-03-25T05:55:35;1.25;;;0.55;;
59734;SDS011;64362;45.620;4.920;2024-03-25T05:58:01;1.23;;;0.60;;
59734;SDS011;64362;45.620;4.920;2024-03-25T06:00:28;0.85;;;0.52;;
59734;SDS011;64362;45.620;4.920;2024-03-25T06:02:54;1.85;;;0.60;;
59734;SDS011;64362;45.620;4.920;2024-03-25T06:05:19;1.60;;;0.60;;
59734;SDS011;64362;45.620;4.920;2024-03-25T06:07:45;1.00;;;0.60;;
59734;SDS011;64362;45.620;4.920;2024-03-25T06:10:10;1.10;;;0.50;;
59734;SDS011;64362;45.620;4.920;2024-03-25T06:12:36;1.95;;;1.02;;
59734;SDS011;64362;45.620;4.920;2024-03-25T06:15:01;2.15;;;0.90;;
59734;SDS011;64362;45.620;4.920;2024-03-25T06:17:27;2.70;;;1.10;;
59734;SDS011;64362;45.620;4.920;2024-03-25T06:19:53;3.15;;;1.00;;
59734;SDS011;64362;45.620;4.920;2024-03-25T06:22:18;1.92;;;0.90;;
59734;SDS011;64362;45.620;4.920;2024-03-25T06:24:43;3.20;;;1.17;;
59734;SDS011;64362;45.620;4.920;2024-03-25T06:27:09;2.95;;;0.90;;
59734;SDS011;64362;45.620;4.920;2024-03-25T06:29:35;2.28;;;0.68;;
59734;SDS011;64362;45.620;4.920;2024-03-25T06:32:01;3.33;;;0.98;;
59734;SDS011;64362;45.620;4.920;2024-03-25T06:34:45;2.63;;;1.00;;
59734;SDS011;64362;45.620;4.920;2024-03-25T06:37:11;4.10;;;1.10;;
59734;SDS011;64362;45.620;4.920;2024-03-25T06:39:36;2.20;;;0.85;;
59734;SDS011;64362;45.620;4.920;2024-03-25T06:42:02;2.47;;;0.80;;
59734;SDS011;64362;45.620;4.920;2024-03-25T06:44:27;4.78;;;1.00;;
59734;SDS011;64362;45.620;4.920;2024-03-25T06:46:53;3.88;;;1.13;;
59734;SDS011;64362;45.620;4.920;2024-03-25T06:49:18;3.78;;;1.10;;
59734;SDS011;64362;45.620;4.920;2024-03-25T06:51:44;6.10;;;1.60;;
59734;SDS011;64362;45.620;4.920;2024-03-25T06:54:13;5.00;;;1.10;;
59734;SDS011;64362;45.620;4.920;2024-03-25T06:56:39;3.45;;;1.35;;
59734;SDS011;64362;45.620;4.920;2024-03-25T06:59:05;4.50;;;1.50;;
59734;SDS011;64362;45.620;4.920;2024-03-25T07:01:31;4.53;;;1.50;;
59734;SDS011;64362;45.620;4.920;2024-03-25T07:04:03;3.75;;;1.45;;
59734;SDS011;64362;45.620;4.920;2024-03-25T07:06:29;2.60;;;1.13;;
59734;SDS011;64362;45.620;4.920;2024-03-25T07:08:55;3.90;;;1.30;;
59734;SDS011;64362;45.620;4.920;2024-03-25T07:11:21;3.78;;;1.35;;
59734;SDS011;64362;45.620;4.920;2024-03-25T07:13:46;3.97;;;1.30;;
59734;SDS011;64362;45.620;4.920;2024-03-25T07:16:12;5.28;;;1.60;;
59734;SDS011;64362;45.620;4.920;2024-03-25T07:18:37;3.97;;;1.60;;
59734;SDS011;64362;45.620;4.920;2024-03-25T07:21:03;4.47;;;1.48;;
59734;SDS011;64362;45.620;4.920;2024-03-25T07:23:28;3.45;;;1.35;;
59734;SDS011;64362;45.620;4.920;2024-03-25T07:25:54;3.70;;;1.70;;
59734;SDS011;64362;45.620;4.920;2024-03-25T07:28:20;2.72;;;1.25;;
59734;SDS011;64362;45.620;4.920;2024-03-25T07:30:45;5.90;;;1.10;;
59734;SDS011;64362;45.620;4.920;2024-03-25T07:33:12;3.22;;;1.33;;
59734;SDS011;64362;45.620;4.920;2024-03-25T07:35:37;4.65;;;1.38;;
59734;SDS011;64362;45.620;4.920;2024-03-25T07:38:03;5.80;;;1.30;;
59734;SDS011;64362;45.620;4.920;2024-03-25T07:40:28;4.13;;;1.30;;
59734;SDS011;64362;45.620;4.920;2024-03-25T07:42:54;2.47;;;1.30;;
59734;SDS011;64362;45.620;4.920;2024-03-25T07:45:20;3.05;;;1.15;;
59734;SDS011;64362;45.620;4.920;2024-03-25T07:47:45;6.05;;;1.10;;
59734;SDS011;64362;45.620;4.920;2024-03-25T07:50:11;3.38;;;1.00;;
59734;SDS011;64362;45.620;4.920;2024-03-25T07:52:36;3.35;;;1.45;;
59734;SDS011;64362;45.620;4.920;2024-03-25T07:55:05;2.92;;;1.10;;
59734;SDS011;64362;45.620;4.920;2024-03-25T07:57:32;2.40;;;0.90;;
59734;SDS011;64362;45.620;4.920;2024-03-25T07:59:57;2.65;;;0.95;;
59734;SDS011;64362;45.620;4.920;2024-03-25T08:02:23;3.83;;;1.15;;
59734;SDS011;64362;45.620;4.920;2024-03-25T08:04:48;2.67;;;1.00;;
59734;SDS011;64362;45.620;4.920;2024-03-25T08:07:13;3.40;;;1.58;;
59734;SDS011;64362;45.620;4.920;2024-03-25T08:09:39;4.07;;;1.15;;
59734;SDS011;64362;45.620;4.920;2024-03-25T08:12:05;3.05;;;0.90;;
59734;SDS011;64362;45.620;4.920;2024-03-25T08:14:30;2.28;;;0.93;;
59734;SDS011;64362;45.620;4.920;2024-03-25T08:16:56;1.85;;;0.90;;
59734;SDS011;64362;45.620;4.920;2024-03-25T08:19:21;4.25;;;1.13;;
59734;SDS011;64362;45.620;4.920;2024-03-25T08:21:47;3.20;;;1.05;;
59734;SDS011;64362;45.620;4.920;2024-03-25T08:24:13;3.28;;;1.17;;
59734;SDS011;64362;45.620;4.920;2024-03-25T08:26:39;2.67;;;0.90;;
59734;SDS011;64362;45.620;4.920;2024-03-25T08:29:04;2.00;;;0.98;;
59734;SDS011;64362;45.620;4.920;2024-03-25T08:31:31;2.08;;;1.10;;
59734;SDS011;64362;45.620;4.920;2024-03-25T08:33:56;2.13;;;0.85;;
59734;SDS011;64362;45.620;4.920;2024-03-25T08:36:24;1.60;;;0.80;;
59734;SDS011;64362;45.620;4.920;2024-03-25T08:38:49;3.58;;;1.05;;
59734;SDS011;64362;45.620;4.920;2024-03-25T08:41:18;1.48;;;0.77;;
59734;SDS011;64362;45.620;4.920;2024-03-25T08:43:44;1.92;;;0.88;;
59734;SDS011;64362;45.620;4.920;2024-03-25T08:46:09;2.63;;;0.93;;
59734;SDS011;64362;45.620;4.920;2024-03-25T08:48:35;1.55;;;0.88;;
59734;SDS011;64362;45.620;4.920;2024-03-25T08:51:04;1.70;;;0.90;;
59734;SDS011;64362;45.620;4.920;2024-03-25T08:53:29;2.40;;;1.00;;
59734;SDS011;64362;45.620;4.920;2024-03-25T08:55:57;2.20;;;1.00;;
59734;SDS011;64362;45.620;4.920;2024-03-25T08:58:23;2.88;;;1.00;;
59734;SDS011;64362;45.620;4.920;2024-03-25T09:00:52;2.65;;;1.00;;
59734;SDS011;64362;45.620;4.920;2024-03-25T09:03:17;1.92;;;0.75;;
59734;SDS011;64362;45.620;4.920;2024-03-25T09:05:43;1.40;;;0.85;;
59734;SDS011;64362;45.620;4.920;2024-03-25T09:08:08;2.60;;;1.05;;
59734;SDS011;64362;45.620;4.920;2024-03-25T09:10:36;2.15;;;0.93;;
59734;SDS011;64362;45.620;4.920;2024-03-25T09:13:21;2.10;;;0.95;;
59734;SDS011;64362;45.620;4.920;2024-03-25T09:15:48;2.20;;;1.00;;
59734;SDS011;64362;45.620;4.920;2024-03-25T09:18:14;2.15;;;0.85;;
59734;SDS011;64362;45.620;4.920;2024-03-25T09:20:39;1.98;;;1.05;;
59734;SDS011;64362;45.620;4.920;2024-03-25T09:23:05;2.30;;;0.88;;
59734;SDS011;64362;45.620;4.920;2024-03-25T09:25:30;1.20;;;0.70;;
59734;SDS011;64362;45.620;4.920;2024-03-25T09:27:56;1.83;;;0.82;;
59734;SDS011;64362;45.620;4.920;2024-03-25T09:30:21;1.88;;;0.90;;
59734;SDS011;64362;45.620;4.920;2024-03-25T09:32:47;1.92;;;0.90;;
59734;SDS011;64362;45.620;4.920;2024-03-25T09:35:13;2.95;;;0.88;;
59734;SDS011;64362;45.620;4.920;2024-03-25T09:37:38;1.63;;;0.85;;
59734;SDS011;64362;45.620;4.920;2024-03-25T09:40:04;2.05;;;1.08;;
59734;SDS011;64362;45.620;4.920;2024-03-25T09:42:34;2.50;;;0.90;;
59734;SDS011;64362;45.620;4.920;2024-03-25T09:45:02;1.52;;;0.70;;
59734;SDS011;64362;45.620;4.920;2024-03-25T09:47:28;1.13;;;0.70;;
59734;SDS011;64362;45.620;4.920;2024-03-25T09:49:54;2.28;;;1.13;;
59734;SDS011;64362;45.620;4.920;2024-03-25T09:52:20;1.80;;;1.00;;
59734;SDS011;64362;45.620;4.920;2024-03-25T09:54:45;1.40;;;0.70;;
59734;SDS011;64362;45.620;4.920;2024-03-25T09:57:11;1.92;;;0.75;;
59734;SDS011;64362;45.620;4.920;2024-03-25T09:59:37;1.83;;;0.80;;
59734;SDS011;64362;45.620;4.920;2024-03-25T10:02:03;1.10;;;0.65;;
59734;SDS011;64362;45.620;4.920;2024-03-25T10:04:36;1.52;;;0.70;;
59734;SDS011;64362;45.620;4.920;2024-03-25T10:07:05;1.58;;;0.85;;
59734;SDS011;64362;45.620;4.920;2024-03-25T10:09:30;1.27;;;0.60;;
59734;SDS011;64362;45.620;4.920;2024-03-25T10:11:56;2.47;;;0.90;;
59734;SDS011;64362;45.620;4.920;2024-03-25T10:14:22;1.95;;;0.65;;
59734;SDS011;64362;45.620;4.920;2024-03-25T10:16:50;1.50;;;0.70;;
59734;SDS011;64362;45.620;4.920;2024-03-25T10:19:16;1.00;;;0.55;;
59734;SDS011;64362;45.620;4.920;2024-03-25T10:21:41;0.80;;;0.55;;
59734;SDS011;64362;45.620;4.920;2024-03-25T10:24:07;1.15;;;0.70;;
59734;SDS011;64362;45.620;4.920;2024-03-25T10:26:33;1.73;;;0.93;;
59734;SDS011;64362;45.620;4.920;2024-03-25T10:29:05;0.90;;;0.60;;
59734;SDS011;64362;45.620;4.920;2024-03-25T10:31:36;1.33;;;0.50;;
59734;SDS011;64362;45.620;4.920;2024-03-25T10:34:01;1.92;;;0.63;;
59734;SDS011;64362;45.620;4.920;2024-03-25T10:36:27;1.25;;;0.70;;
59734;SDS011;64362;45.620;4.920;2024-03-25T10:38:53;1.13;;;0.57;;
59734;SDS011;64362;45.620;4.920;2024-03-25T10:41:20;1.30;;;0.60;;
59734;SDS011;64362;45.620;4.920;2024-03-25T10:43:46;0.93;;;0.52;;
59734;SDS011;64362;45.620;4.920;2024-03-25T10:46:17;1.02;;;0.50;;
59734;SDS011;64362;45.620;4.920;2024-03-25T10:48:48;0.93;;;0.45;;
59734;SDS011;64362;45.620;4.920;2024-03-25T10:51:19;1.00;;;0.57;;
59734;SDS011;64362;45.620;4.920;2024-03-25T10:53:47;1.20;;;0.52;;
59734;SDS011;64362;45.620;4.920;2024-03-25T10:56:15;1.42;;;0.60;;
59734;SDS011;64362;45.620;4.920;2024-03-25T10:58:41;1.85;;;1.00;;
59734;SDS011;64362;45.620;4.920;2024-03-25T11:01:10;1.90;;;0.63;;
59734;SDS011;64362;45.620;4.920;2024-03-25T11:03:36;0.85;;;0.50;;
59734;SDS011;64362;45.620;4.920;2024-03-25T11:06:02;1.33;;;0.55;;
59734;SDS011;64362;45.620;4.920;2024-03-25T11:08:31;1.30;;;0.57;;
59734;SDS011;64362;45.620;4.920;2024-03-25T11:10:59;0.82;;;0.40;;
59734;SDS011;64362;45.620;4.920;2024-03-25T11:13:26;1.30;;;0.60;;
59734;SDS011;64362;45.620;4.920;2024-03-25T11:15:53;0.80;;;0.50;;
59734;SDS011;64362;45.620;4.920;2024-03-25T11:18:22;0.60;;;0.50;;
59734;SDS011;64362;45.620;4.920;2024-03-25T11:21:02;0.93;;;0.60;;
59734;SDS011;64362;45.620;4.920;2024-03-25T11:23:38;0.70;;;0.40;;
59734;SDS011;64362;45.620;4.920;2024-03-25T11:26:16;2.17;;;0.50;;
59734;SDS011;64362;45.620;4.920;2024-03-25T11:28:43;1.33;;;0.43;;
59734;SDS011;64362;45.620;4.920;2024-03-25T11:31:10;0.80;;;0.50;;
59734;SDS011;64362;45.620;4.920;2024-03-25T11:33:37;0.85;;;0.40;;
59734;SDS011;64362;45.620;4.920;2024-03-25T11:36:04;0.75;;;0.40;;
59734;SDS011;64362;45.620;4.920;2024-03-25T11:38:30;0.85;;;0.50;;
59734;SDS011;64362;45.620;4.920;2024-03-25T11:40:56;0.60;;;0.40;;
59734;SDS011;64362;45.620;4.920;2024-03-25T11:43:23;1.58;;;0.60;;
59734;SDS011;64362;45.620;4.920;2024-03-25T11:45:50;0.88;;;0.50;;
59734;SDS011;64362;45.620;4.920;2024-03-25T11:48:16;0.73;;;0.40;;
59734;SDS011;64362;45.620;4.920;2024-03-25T11:50:42;0.70;;;0.50;;
59734;SDS011;64362;45.620;4.920;2024-03-25T11:53:10;1.85;;;0.50;;
59734;SDS011;64362;45.620;4.920;2024-03-25T11:55:35;0.55;;;0.50;;
59734;SDS011;64362;45.620;4.920;2024-03-25T11:58:01;1.15;;;0.50;;
59734;SDS011;64362;45.620;4.920;2024-03-25T12:00:26;0.50;;;0.30;;
59734;SDS011;64362;45.620;4.920;2024-03-25T12:02:52;2.88;;;0.50;;
59734;SDS011;64362;45.620;4.920;2024-03-25T12:05:18;1.38;;;0.47;;
59734;SDS011;64362;45.620;4.920;2024-03-25T12:07:43;0.98;;;0.60;;
59734;SDS011;64362;45.620;4.920;2024-03-25T12:10:09;0.55;;;0.35;;
59734;SDS011;64362;45.620;4.920;2024-03-25T12:12:53;1.40;;;0.57;;
59734;SDS011;64362;45.620;4.920;2024-03-25T12:15:21;1.13;;;0.60;;
59734;SDS011;64362;45.620;4.920;2024-03-25T12:17:47;0.52;;;0.30;;
59734;SDS011;64362;45.620;4.920;2024-03-25T12:20:16;0.90;;;0.60;;
59734;SDS011;64362;45.620;4.920;2024-03-25T12:22:42;1.02;;;0.40;;
59734;SDS011;64362;45.620;4.920;2024-03-25T12:25:08;0.98;;;0.50;;
59734;SDS011;64362;45.620;4.920;2024-03-25T12:27:35;1.17;;;0.50;;
59734;SDS011;64362;45.620;4.920;2024-03-25T12:30:03;1.45;;;0.50;;
59734;SDS011;64362;45.620;4.920;2024-03-25T12:34:57;0.55;;;0.30;;
59734;SDS011;64362;45.620;4.920;2024-03-25T12:37:23;0.82;;;0.50;;
59734;SDS011;64362;45.620;4.920;2024-03-25T12:39:48;0.75;;;0.52;;
59734;SDS011;64362;45.620;4.920;2024-03-25T12:42:14;0.60;;;0.40;;
59734;SDS011;64362;45.620;4.920;2024-03-25T12:44:40;0.65;;;0.40;;
59734;SDS011;64362;45.620;4.920;2024-03-25T12:47:06;0.60;;;0.30;;
59734;SDS011;64362;45.620;4.920;2024-03-25T12:49:31;1.00;;;0.40;;
59734;SDS011;64362;45.620;4.920;2024-03-25T12:51:58;0.60;;;0.40;;
59734;SDS011;64362;45.620;4.920;2024-03-25T12:54:23;1.42;;;0.50;;
59734;SDS011;64362;45.620;4.920;2024-03-25T12:56:49;1.52;;;0.50;;
59734;SDS011;64362;45.620;4.920;2024-03-25T12:59:14;1.30;;;0.50;;
59734;SDS011;64362;45.620;4.920;2024-03-25T13:01:40;1.20;;;0.35;;
59734;SDS011;64362;45.620;4.920;2024-03-25T13:04:05;1.00;;;0.45;;
59734;SDS011;64362;45.620;4.920;2024-03-25T13:06:31;0.63;;;0.40;;
59734;SDS011;64362;45.620;4.920;2024-03-25T13:08:56;1.33;;;0.47;;
59734;SDS011;64362;45.620;4.920;2024-03-25T13:11:23;0.95;;;0.50;;
59734;SDS011;64362;45.620;4.920;2024-03-25T13:13:49;0.68;;;0.40;;
59734;SDS011;64362;45.620;4.920;2024-03-25T13:16:15;1.15;;;0.47;;
59734;SDS011;64362;45.620;4.920;2024-03-25T13:18:41;1.23;;;0.47;;
59734;SDS011;64362;45.620;4.920;2024-03-25T13:21:06;1.02;;;0.50;;
59734;SDS011;64362;45.620;4.920;2024-03-25T13:23:32;1.23;;;0.47;;
59734;SDS011;64362;45.620;4.920;2024-03-25T13:26:02;0.75;;;0.40;;
59734;SDS011;64362;45.620;4.920;2024-03-25T13:28:28;1.20;;;0.40;;
59734;SDS011;64362;45.620;4.920;2024-03-25T13:30:57;0.70;;;0.40;;
59734;SDS011;64362;45.620;4.920;2024-03-25T13:33:22;0.60;;;0.32;;
59734;SDS011;64362;45.620;4.920;2024-03-25T13:35:49;0.98;;;0.40;;
59734;SDS011;64362;45.620;4.920;2024-03-25T13:38:14;0.45;;;0.30;;
59734;SDS011;64362;45.620;4.920;2024-03-25T13:40:40;0.73;;;0.30;;
59734;SDS011;64362;45.620;4.920;2024-03-25T13:43:05;0.63;;;0.40;;
59734;SDS011;64362;45.620;4.920;2024-03-25T13:45:33;1.23;;;0.50;;
59734;SDS011;64362;45.620;4.920;2024-03-25T13:47:59;0.85;;;0.43;;
59734;SDS011;64362;45.620;4.920;2024-03-25T13:50:24;0.82;;;0.47;;
59734;SDS011;64362;45.620;4.920;2024-03-25T13:52:49;1.00;;;0.50;;
59734;SDS011;64362;45.620;4.920;2024-03-25T13:55:15;0.60;;;0.40;;
59734;SDS011;64362;45.620;4.920;2024-03-25T13:57:41;0.63;;;0.30;;
59734;SDS011;64362;45.620;4.920;2024-03-25T14:00:07;1.10;;;0.30;;
59734;SDS011;64362;45.620;4.920;2024-03-25T14:02:37;0.63;;;0.40;;
59734;SDS011;64362;45.620;4.920;2024-03-25T14:05:05;1.02;;;0.50;;
59734;SDS011;64362;45.620;4.920;2024-03-25T14:07:31;0.75;;;0.43;;
59734;SDS011;64362;45.620;4.920;2024-03-25T14:10:00;1.67;;;0.40;;
59734;SDS011;64362;45.620;4.920;2024-03-25T14:12:26;1.05;;;0.52;;
59734;SDS011;64362;45.620;4.920;2024-03-25T14:14:54;0.75;;;0.40;;
59734;SDS011;64362;45.620;4.920;2024-03-25T14:17:20;1.65;;;0.68;;
59734;SDS011;64362;45.620;4.920;2024-03-25T14:19:45;0.60;;;0.30;;
59734;SDS011;64362;45.620;4.920;2024-03-25T14:22:11;0.90;;;0.47;;
59734;SDS011;64362;45.620;4.920;2024-03-25T14:24:36;0.60;;;0.30;;
59734;SDS011;64362;45.620;4.920;2024-03-25T14:27:02;0.57;;;0.35;;
59734;SDS011;64362;45.620;4.920;2024-03-25T14:29:27;1.27;;;0.45;;
59734;SDS011;64362;45.620;4.920;2024-03-25T14:31:52;0.38;;;0.32;;
59734;SDS011;64362;45.620;4.920;2024-03-25T14:34:18;0.70;;;0.40;;
59734;SDS011;64362;45.620;4.920;2024-03-25T14:36:43;0.52;;;0.28;;
59734;SDS011;64362;45.620;4.920;2024-03-25T14:39:10;0.77;;;0.43;;
59734;SDS011;64362;45.620;4.920;2024-03-25T14:41:39;0.45;;;0.30;;
59734;SDS011;64362;45.620;4.920;2024-03-25T14:44:05;0.77;;;0.52;;
59734;SDS011;64362;45.620;4.920;2024-03-25T14:46:30;1.08;;;0.35;;
59734;SDS011;64362;45.620;4.920;2024-03-25T14:48:56;1.08;;;0.70;;